Saint Boniface, PA

3:05 AM EDT on October 31, 2014 (GMT -0400)
Johnstown-Cambria County | Change Station
CLOSE
Current Station
Airport
Location: Johnstown,
Elevation: 2283 ft
Nearby Weather Stations

Elev 2283 ft 40.32 °N, 78.83 °W | Updated 11 minutes ago

Overcast
Overcast
40 °F
Feels Like 38 °F
N
4
Wind Variable Wind from South

Today
High -- | Low -- °F
--% Chance of Precip.
Yesterday
High -- | Low -- °F
Precip. -- in
7:43 AM 6:12 PM
First Quarter, 52% visible
Pressure 30.01 in
Visibility 10.0 miles
Clouds Overcast 3600 ft
Windchill 38 °F
Dew Point 36 °F
Humidity 86%
Rainfall 0.00 in
Snow Depth Not available.
UV 0 out of 12
Pollen .10 out of 12
Air Quality Not available.
Flu Activity Not available.
METAR KJST 310654Z AUTO 17003KT 10SM OVC036 04/02 A2997 RMK AO2 SLP161 T00440022

More Conditions Fewer Conditions

Pressure 30.01 in
Visibility 10.0 miles
Clouds Overcast 3600 ft
Windchill 38 °F
Dew Point 36 °F
Humidity 86%
Rainfall 0.00 in
Snow Depth Not available.
UV 0 out of 12
Pollen .10 out of 12
Air Quality Not available.
Flu Activity Not available.
METAR KJST 310654Z AUTO 17003KT 10SM OVC036 04/02 A2997 RMK AO2 SLP161 T00440022

More Conditions Fewer Conditions

10-Day Weather Forecast

Almanac

Astronomy

Oct. 31, 2014 Rise Set
Actual Time
Civil Twilight
Nautical Twilight
Astronomical Twilight
Moon
Length of Visible Light
Length of Day
Tomorrow will be .
, % of the Moon is Illuminated

Today's Extremes

State Highs State Lows

Community

WunderPhotos

Upload Photos

1,766,571 photos uploaded!

WunderBlogs® & News

Nearby

Air Quality

  Air Quality AQ Index Pollutant
Not available.

Snow Depth

Station Depth Elevation

Earthquake Activity

City Distance Mag. Time & Date
Minimum magnitude displayed is 2.5.

Coastal Water Temperatures

Place Temperature

Nearby Weather Stations